createdAt,value
2019-01-11T00:00:02.079Z,9.50
2019-01-11T00:01:02.052Z,8.10
2019-01-11T00:02:02.028Z,8.40
2019-01-11T00:03:02.008Z,8.40
2019-01-11T00:04:01.980Z,8.70
2019-01-11T00:05:01.957Z,9.50
2019-01-11T00:06:01.942Z,8.90
2019-01-11T00:07:01.908Z,9.70
2019-01-11T00:08:01.885Z,9.40
2019-01-11T00:09:01.870Z,9.30
2019-01-11T00:10:01.842Z,8.50
2019-01-11T00:11:01.813Z,9.50
2019-01-11T00:12:01.793Z,9.90
2019-01-11T00:13:01.768Z,9.60
2019-01-11T00:14:01.742Z,10.10
2019-01-11T00:15:01.718Z,10.50
2019-01-11T00:16:01.689Z,10.70
2019-01-11T00:17:01.665Z,10.90
2019-01-11T00:18:01.649Z,11.00
2019-01-11T00:19:07.115Z,10.50
2019-01-11T00:20:03.725Z,11.10
2019-01-11T00:21:01.566Z,11.60
2019-01-11T00:22:01.541Z,11.70
2019-01-11T00:23:01.516Z,11.60
2019-01-11T00:24:01.500Z,12.30
2019-01-11T00:25:01.471Z,12.80
2019-01-11T00:26:01.453Z,13.80
2019-01-11T00:27:01.424Z,12.90
2019-01-11T00:28:01.397Z,14.70
2019-01-11T00:29:01.373Z,14.50
2019-01-11T00:30:01.349Z,13.90
2019-01-11T00:31:01.323Z,13.90
2019-01-11T00:32:01.300Z,12.20
2019-01-11T00:33:01.284Z,14.30
2019-01-11T00:34:01.254Z,15.30
2019-01-11T00:35:01.230Z,13.90
2019-01-11T00:36:01.206Z,15.50
2019-01-11T00:37:01.179Z,14.60
2019-01-11T00:38:01.153Z,15.50
2019-01-11T00:39:01.144Z,14.90
2019-01-11T00:40:01.111Z,16.20
2019-01-11T00:41:01.085Z,15.10
2019-01-11T00:42:01.064Z,15.40
2019-01-11T00:43:01.032Z,16.40
2019-01-11T00:44:01.009Z,16.30
2019-01-11T00:45:00.985Z,16.00
2019-01-11T00:46:00.962Z,15.70
2019-01-11T00:47:00.941Z,14.80
2019-01-11T00:48:00.912Z,15.20
2019-01-11T00:49:00.887Z,15.60
2019-01-11T00:50:00.876Z,14.90
2019-01-11T00:51:00.838Z,15.10
2019-01-11T00:52:00.812Z,15.30
2019-01-11T00:53:00.790Z,14.90
2019-01-11T00:54:00.766Z,15.60
2019-01-11T00:55:00.749Z,15.50
2019-01-11T00:56:00.716Z,15.50
2019-01-11T00:57:00.690Z,15.60
2019-01-11T00:58:00.667Z,15.30
2019-01-11T00:59:00.645Z,15.50
2019-01-11T01:00:00.621Z,14.50
2019-01-11T01:01:00.595Z,15.10
2019-01-11T01:02:00.572Z,14.90
2019-01-11T01:03:00.546Z,14.80
2019-01-11T01:04:00.524Z,14.50
2019-01-11T01:05:00.500Z,14.20
2019-01-11T01:06:00.472Z,13.60
2019-01-11T01:07:00.454Z,13.70
2019-01-11T01:08:00.425Z,13.80
2019-01-11T01:09:00.405Z,13.80
2019-01-11T01:10:00.375Z,13.10
2019-01-11T01:11:00.352Z,12.50
2019-01-11T01:12:00.333Z,13.30
2019-01-11T01:13:00.304Z,13.40
2019-01-11T01:14:00.278Z,13.40
2019-01-11T01:15:00.259Z,15.00
2019-01-11T01:16:00.232Z,13.30
2019-01-11T01:17:00.210Z,14.10
2019-01-11T01:18:00.183Z,14.10
2019-01-11T01:19:00.160Z,14.60
2019-01-11T01:20:00.245Z,16.20
2019-01-11T01:21:00.112Z,14.80
2019-01-11T01:22:00.085Z,14.70
2019-01-11T01:23:00.067Z,15.40
2019-01-11T01:24:00.042Z,15.80
2019-01-11T01:25:00.013Z,16.50
2019-01-11T01:26:00.001Z,15.40
2019-01-11T01:26:59.967Z,14.80
2019-01-11T01:27:59.940Z,16.50
2019-01-11T01:28:59.918Z,16.90
2019-01-11T01:29:59.892Z,15.50
2019-01-11T01:30:59.869Z,17.30
2019-01-11T01:31:59.843Z,16.90
2019-01-11T01:32:59.818Z,17.90
2019-01-11T01:33:59.793Z,17.80
2019-01-11T01:34:59.773Z,18.00
2019-01-11T01:35:59.750Z,16.30
2019-01-11T01:36:59.725Z,16.40
2019-01-11T01:37:59.701Z,16.90
2019-01-11T01:38:59.671Z,16.00
2019-01-11T01:39:59.655Z,16.20
2019-01-11T01:40:59.627Z,16.30
2019-01-11T01:41:59.598Z,16.40
2019-01-11T01:43:00.903Z,16.60
2019-01-11T01:43:59.550Z,17.00
2019-01-11T01:44:59.528Z,16.90
2019-01-11T01:45:59.503Z,16.80
2019-01-11T01:46:59.481Z,16.00
2019-01-11T01:47:59.467Z,15.60
2019-01-11T01:48:59.431Z,16.10
2019-01-11T01:49:59.403Z,16.80
2019-01-11T01:50:59.380Z,17.30
2019-01-11T01:51:59.355Z,16.00
2019-01-11T01:52:59.334Z,16.80
2019-01-11T01:53:59.311Z,16.70
2019-01-11T01:54:59.289Z,15.80
2019-01-11T01:55:59.257Z,16.70
2019-01-11T01:56:59.235Z,16.70
2019-01-11T01:57:59.214Z,15.10
2019-01-11T01:58:59.186Z,16.20
2019-01-11T01:59:59.161Z,15.90
2019-01-11T02:00:59.142Z,15.50
2019-01-11T02:01:59.123Z,14.90
2019-01-11T02:02:59.091Z,15.20
2019-01-11T02:03:59.065Z,15.20
2019-01-11T02:04:59.038Z,15.60
2019-01-11T02:05:59.020Z,15.60
2019-01-11T02:06:58.992Z,14.40
2019-01-11T02:07:58.967Z,14.50
2019-01-11T02:08:58.942Z,15.30
2019-01-11T02:09:58.927Z,14.40
2019-01-11T02:10:58.894Z,15.20
2019-01-11T02:11:58.878Z,15.50
2019-01-11T02:12:58.848Z,14.70
2019-01-11T02:13:58.827Z,14.30
2019-01-11T02:14:58.796Z,14.80
2019-01-11T02:15:58.776Z,15.60
2019-01-11T02:16:58.754Z,14.90
2019-01-11T02:17:58.723Z,14.30
2019-01-11T02:18:58.699Z,14.90
2019-01-11T02:19:58.678Z,14.70
2019-01-11T02:20:58.652Z,15.40
2019-01-11T02:21:58.629Z,14.10
2019-01-11T02:22:58.604Z,15.20
2019-01-11T02:23:58.579Z,14.80
2019-01-11T02:24:58.556Z,15.00
2019-01-11T02:25:58.535Z,16.40
2019-01-11T02:26:58.504Z,14.60
2019-01-11T02:27:58.482Z,15.20
2019-01-11T02:28:58.458Z,14.90
2019-01-11T02:29:58.486Z,15.90
2019-01-11T02:30:58.412Z,15.30
2019-01-11T02:31:58.384Z,16.40
2019-01-11T02:32:58.362Z,15.10
2019-01-11T02:33:58.339Z,16.70
2019-01-11T02:34:58.312Z,17.40
2019-01-11T02:35:58.292Z,16.70
2019-01-11T02:36:58.264Z,16.20
2019-01-11T02:37:58.241Z,16.40
2019-01-11T02:38:58.216Z,17.70
2019-01-11T02:39:58.193Z,17.60
2019-01-11T02:40:58.166Z,16.90
2019-01-11T02:41:58.144Z,17.40
2019-01-11T02:42:58.120Z,17.60
2019-01-11T02:43:58.101Z,17.50
2019-01-11T02:44:58.075Z,17.70
2019-01-11T02:45:58.051Z,17.50
2019-01-11T02:46:58.019Z,18.70
2019-01-11T02:47:57.997Z,17.70
2019-01-11T02:48:57.972Z,18.20
2019-01-11T02:49:57.951Z,18.60
2019-01-11T02:50:57.938Z,16.70
2019-01-11T02:51:57.900Z,18.20
2019-01-11T02:52:57.878Z,17.10
2019-01-11T02:53:57.851Z,16.50
2019-01-11T02:54:57.834Z,17.50
2019-01-11T02:55:57.804Z,17.30
2019-01-11T02:56:57.781Z,18.00
2019-01-11T02:57:57.757Z,18.30
2019-01-11T02:58:57.731Z,18.40
2019-01-11T02:59:57.709Z,18.40
2019-01-11T03:00:57.685Z,18.20
2019-01-11T03:01:57.658Z,17.90
2019-01-11T03:02:57.638Z,19.30
2019-01-11T03:03:57.613Z,18.20
2019-01-11T03:04:57.595Z,19.10
2019-01-11T03:05:57.566Z,18.70
2019-01-11T03:06:57.539Z,18.90
2019-01-11T03:07:57.518Z,18.20
2019-01-11T03:08:57.492Z,19.00
2019-01-11T03:09:57.466Z,18.00
2019-01-11T03:10:57.443Z,18.10
2019-01-11T03:11:57.415Z,19.20
2019-01-11T03:12:57.392Z,18.60
2019-01-11T03:13:57.365Z,18.50
2019-01-11T03:14:57.345Z,18.20
2019-01-11T03:15:57.322Z,17.50
2019-01-11T03:16:57.299Z,17.10
2019-01-11T03:17:57.272Z,16.80
2019-01-11T03:18:57.245Z,17.50
2019-01-11T03:19:57.224Z,18.10
2019-01-11T03:20:57.202Z,18.10
2019-01-11T03:21:57.174Z,18.50
2019-01-11T03:22:57.150Z,18.80
2019-01-11T03:23:57.126Z,18.10
2019-01-11T03:24:57.101Z,18.90
2019-01-11T03:25:57.077Z,17.70
2019-01-11T03:26:57.060Z,19.50
2019-01-11T03:27:57.036Z,17.70
2019-01-11T03:28:57.005Z,19.70
2019-01-11T03:29:56.981Z,20.20
2019-01-11T03:30:56.963Z,20.50
2019-01-11T03:31:56.930Z,19.90
2019-01-11T03:32:56.912Z,21.30
2019-01-11T03:33:56.891Z,20.80
2019-01-11T03:34:56.856Z,20.90
2019-01-11T03:35:56.833Z,21.00
2019-01-11T03:36:56.818Z,20.50
2019-01-11T03:37:56.787Z,21.40
2019-01-11T03:38:56.768Z,19.50
2019-01-11T03:39:58.105Z,19.90
2019-01-11T03:40:56.712Z,21.00
2019-01-11T03:41:56.694Z,21.60
2019-01-11T03:42:56.663Z,19.80
2019-01-11T03:43:56.644Z,20.00
2019-01-11T03:44:56.617Z,21.40
2019-01-11T03:45:56.594Z,20.70
2019-01-11T03:46:56.568Z,20.80
2019-01-11T03:47:56.544Z,23.70
2019-01-11T03:48:56.519Z,22.00
2019-01-11T03:49:56.495Z,21.40
2019-01-11T03:50:56.470Z,21.40
2019-01-11T03:51:56.446Z,22.20
2019-01-11T03:52:56.423Z,23.50
2019-01-11T03:53:56.399Z,22.20
2019-01-11T03:54:56.386Z,22.70
2019-01-11T03:55:56.407Z,22.70
2019-01-11T03:56:56.326Z,22.50
2019-01-11T03:57:56.300Z,21.80
2019-01-11T03:58:56.281Z,21.80
2019-01-11T03:59:56.256Z,23.60
2019-01-11T04:00:56.231Z,22.20
2019-01-11T04:01:56.205Z,20.30
2019-01-11T04:02:56.182Z,21.30
2019-01-11T04:03:56.157Z,20.40
2019-01-11T04:04:56.139Z,22.60
2019-01-11T04:05:56.109Z,21.80
2019-01-11T04:06:56.085Z,20.50
2019-01-11T04:07:56.060Z,21.00
2019-01-11T04:08:56.038Z,21.60
2019-01-11T04:09:56.011Z,20.00
2019-01-11T04:10:55.988Z,21.00
2019-01-11T04:11:55.965Z,20.40
2019-01-11T04:12:55.940Z,21.30
2019-01-11T04:13:55.913Z,20.60
2019-01-11T04:14:55.893Z,20.50
2019-01-11T04:15:56.666Z,21.10
2019-01-11T04:16:55.845Z,20.80
2019-01-11T04:17:55.824Z,20.40
2019-01-11T04:18:55.799Z,21.60
2019-01-11T04:20:01.823Z,20.60
2019-01-11T04:20:55.754Z,20.40
2019-01-11T04:21:55.724Z,21.30
2019-01-11T04:22:55.700Z,20.40
2019-01-11T04:23:55.681Z,21.90
2019-01-11T04:24:55.657Z,20.60
2019-01-11T04:25:55.632Z,20.30
2019-01-11T04:26:55.604Z,20.00
2019-01-11T04:27:55.580Z,19.90
2019-01-11T04:28:55.558Z,21.90
2019-01-11T04:29:55.542Z,20.70
2019-01-11T04:30:55.507Z,20.20
2019-01-11T04:31:55.491Z,20.50
2019-01-11T04:32:55.462Z,19.90
2019-01-11T04:33:55.441Z,20.70
2019-01-11T04:34:55.417Z,20.90
2019-01-11T04:35:55.393Z,21.40
2019-01-11T04:36:55.377Z,20.90
2019-01-11T04:37:55.343Z,19.90
2019-01-11T04:38:55.321Z,19.90
2019-01-11T04:39:55.297Z,20.00
2019-01-11T04:40:55.274Z,21.20
2019-01-11T04:41:55.250Z,19.30
2019-01-11T04:42:55.228Z,20.40
2019-01-11T04:43:55.204Z,20.50
2019-01-11T04:44:55.180Z,20.80
2019-01-11T04:45:55.154Z,20.60
2019-01-11T04:46:55.131Z,21.80
2019-01-11T04:47:55.106Z,24.00
2019-01-11T04:48:55.080Z,21.90
2019-01-11T04:49:55.067Z,24.70
2019-01-11T04:50:55.032Z,22.50
2019-01-11T04:51:55.009Z,23.40
2019-01-11T04:52:54.985Z,21.40
2019-01-11T04:53:54.962Z,23.20
2019-01-11T04:54:54.938Z,22.00
2019-01-11T04:55:54.915Z,23.90
2019-01-11T04:56:54.894Z,22.90
2019-01-11T04:57:54.865Z,24.40
2019-01-11T04:58:54.841Z,23.00
2019-01-11T04:59:54.825Z,26.30
2019-01-11T05:00:54.801Z,23.90
2019-01-11T05:01:54.772Z,23.30
2019-01-11T05:02:54.757Z,26.60
2019-01-11T05:03:54.728Z,25.90
2019-01-11T05:04:54.699Z,25.00
2019-01-11T05:05:54.698Z,28.30
2019-01-11T05:06:54.652Z,26.30
2019-01-11T05:07:54.633Z,25.70
2019-01-11T05:08:54.603Z,26.60
2019-01-11T05:09:54.578Z,27.40
2019-01-11T05:10:54.555Z,26.00
2019-01-11T05:11:54.542Z,31.60
2019-01-11T05:12:54.510Z,29.20
2019-01-11T05:13:54.489Z,27.30
2019-01-11T05:14:54.462Z,30.20
2019-01-11T05:15:54.439Z,31.20
2019-01-11T05:16:54.417Z,31.00
2019-01-11T05:17:54.391Z,29.90
2019-01-11T05:18:54.368Z,29.60
2019-01-11T05:19:54.349Z,30.30
2019-01-11T05:20:54.320Z,32.90
2019-01-11T05:21:54.296Z,31.70
2019-01-11T05:22:54.272Z,33.50
2019-01-11T05:23:54.249Z,33.30
2019-01-11T05:24:54.230Z,32.70
2019-01-11T05:25:54.203Z,34.20
2019-01-11T05:26:54.178Z,34.80
2019-01-11T05:27:54.152Z,35.10
2019-01-11T05:28:54.131Z,34.80
2019-01-11T05:29:54.112Z,34.30
2019-01-11T05:30:54.091Z,35.70
2019-01-11T05:31:54.102Z,33.60
2019-01-11T05:32:54.040Z,34.40
2019-01-11T05:33:54.013Z,35.80
2019-01-11T05:34:53.989Z,35.90
2019-01-11T05:35:53.965Z,35.00
2019-01-11T05:36:53.942Z,36.00
2019-01-11T05:37:53.961Z,34.40
2019-01-11T05:38:53.893Z,35.50
2019-01-11T05:39:53.872Z,37.10
2019-01-11T05:40:53.850Z,37.50
2019-01-11T05:41:53.823Z,35.70
2019-01-11T05:42:53.800Z,36.70
2019-01-11T05:43:53.775Z,37.40
2019-01-11T05:44:53.751Z,39.70
2019-01-11T05:45:53.741Z,35.90
2019-01-11T05:46:53.719Z,37.00
2019-01-11T05:47:53.685Z,37.30
2019-01-11T05:48:53.663Z,37.40
2019-01-11T05:49:53.634Z,40.20
2019-01-11T05:50:53.610Z,39.50
2019-01-11T05:51:53.589Z,37.50
2019-01-11T05:52:53.564Z,37.30
2019-01-11T05:53:53.539Z,37.60
2019-01-11T05:54:53.516Z,40.70
2019-01-11T05:55:53.500Z,40.80
2019-01-11T05:56:53.473Z,43.40
2019-01-11T05:57:53.446Z,39.20
2019-01-11T05:58:53.423Z,41.60
2019-01-11T05:59:53.402Z,40.60
2019-01-11T06:00:53.375Z,41.80
2019-01-11T06:01:53.349Z,41.70
2019-01-11T06:02:53.328Z,42.00
2019-01-11T06:03:53.305Z,42.10
2019-01-11T06:04:53.286Z,41.10
2019-01-11T06:05:53.261Z,44.80
2019-01-11T06:06:53.233Z,40.30
2019-01-11T06:07:53.213Z,45.20
2019-01-11T06:08:53.192Z,40.80
2019-01-11T06:09:53.162Z,50.00
2019-01-11T06:10:53.141Z,43.20
2019-01-11T06:11:53.123Z,43.90
2019-01-11T06:12:53.099Z,45.60
2019-01-11T06:13:53.069Z,43.20
2019-01-11T06:14:53.047Z,44.90
2019-01-11T06:15:53.027Z,49.50
2019-01-11T06:16:53.002Z,47.10
2019-01-11T06:17:52.980Z,49.00
2019-01-11T06:18:52.955Z,47.10
2019-01-11T06:19:52.930Z,49.30
2019-01-11T06:20:52.908Z,48.20
2019-01-11T06:21:52.885Z,49.10
2019-01-11T06:22:52.867Z,49.30
2019-01-11T06:23:52.840Z,46.40
2019-01-11T06:24:52.814Z,52.30
2019-01-11T06:25:52.809Z,49.10
2019-01-11T06:26:52.776Z,51.60
2019-01-11T06:27:52.760Z,47.80
2019-01-11T06:28:52.722Z,53.60
2019-01-11T06:29:52.706Z,48.50
2019-01-11T06:30:52.678Z,50.70
2019-01-11T06:31:52.651Z,52.00
2019-01-11T06:32:52.626Z,50.90
2019-01-11T06:33:52.603Z,57.10
2019-01-11T06:34:52.580Z,52.60
2019-01-11T06:35:52.557Z,53.70
2019-01-11T06:36:52.537Z,52.70
2019-01-11T06:37:52.508Z,53.90
2019-01-11T06:38:52.485Z,52.30
2019-01-11T06:39:52.467Z,55.20
2019-01-11T06:40:52.441Z,55.30
2019-01-11T06:41:52.416Z,58.00
2019-01-11T06:42:52.399Z,56.50
2019-01-11T06:43:52.372Z,52.50
2019-01-11T06:44:52.350Z,56.00
2019-01-11T06:45:52.323Z,52.70
2019-01-11T06:46:52.300Z,53.40
2019-01-11T06:47:52.277Z,59.10
2019-01-11T06:48:52.255Z,57.70
2019-01-11T06:49:52.231Z,57.60
2019-01-11T06:50:52.207Z,55.70
2019-01-11T06:51:52.184Z,56.40
2019-01-11T06:52:52.161Z,59.00
2019-01-11T06:53:52.137Z,53.90
2019-01-11T06:54:52.114Z,58.40
2019-01-11T06:55:52.090Z,55.80
2019-01-11T06:56:52.068Z,54.60
2019-01-11T06:57:52.049Z,53.80
2019-01-11T06:58:52.023Z,56.80
2019-01-11T06:59:52.005Z,54.80
2019-01-11T07:00:51.980Z,54.60
2019-01-11T07:01:51.949Z,56.00
2019-01-11T07:02:51.925Z,57.10
2019-01-11T07:03:51.902Z,57.90
2019-01-11T07:04:51.880Z,54.20
2019-01-11T07:05:51.862Z,54.40
2019-01-11T07:06:51.832Z,54.40
2019-01-11T07:07:51.810Z,56.90
2019-01-11T07:08:51.788Z,54.30
2019-01-11T07:09:51.786Z,53.80
2019-01-11T07:10:51.751Z,58.00
2019-01-11T07:11:51.719Z,52.60
2019-01-11T07:12:51.703Z,57.30
2019-01-11T07:13:51.673Z,59.70
2019-01-11T07:14:51.648Z,56.60
2019-01-11T07:15:51.628Z,56.90
2019-01-11T07:16:51.602Z,52.80
2019-01-11T07:17:51.585Z,57.00
2019-01-11T07:18:51.555Z,56.80
2019-01-11T07:19:51.533Z,54.10
2019-01-11T07:20:51.509Z,58.60
2019-01-11T07:21:51.484Z,56.70
2019-01-11T07:22:51.471Z,56.70
2019-01-11T07:23:51.443Z,57.30
2019-01-11T07:24:51.420Z,58.50
2019-01-11T07:25:51.468Z,58.40
2019-01-11T07:26:51.373Z,59.70
2019-01-11T07:27:51.346Z,58.50
2019-01-11T07:28:51.322Z,61.70
2019-01-11T07:29:51.298Z,59.30
2019-01-11T07:30:51.283Z,63.00
2019-01-11T07:31:51.259Z,65.90
2019-01-11T07:32:51.234Z,69.80
2019-01-11T07:33:51.208Z,66.30
2019-01-11T07:34:51.183Z,61.80
2019-01-11T07:35:51.162Z,63.60
2019-01-11T07:36:51.138Z,61.80
2019-01-11T07:37:51.116Z,63.80
2019-01-11T07:38:51.091Z,65.00
2019-01-11T07:39:51.070Z,63.10
2019-01-11T07:40:51.051Z,61.40
2019-01-11T07:41:51.021Z,65.00
2019-01-11T07:42:51.004Z,66.60
2019-01-11T07:43:50.977Z,61.80
2019-01-11T07:44:50.955Z,73.60
2019-01-11T07:45:50.928Z,68.30
2019-01-11T07:46:50.918Z,72.20
2019-01-11T07:47:50.883Z,63.80
2019-01-11T07:48:50.860Z,68.60
2019-01-11T07:49:50.846Z,72.70
2019-01-11T07:50:50.817Z,69.50
2019-01-11T07:51:50.791Z,64.80
2019-01-11T07:52:50.768Z,76.80
2019-01-11T07:53:50.747Z,74.10
2019-01-11T07:54:50.725Z,75.70
2019-01-11T07:55:50.708Z,68.30
2019-01-11T07:56:50.676Z,70.00
2019-01-11T07:57:50.654Z,75.10
2019-01-11T07:58:50.631Z,72.00
2019-01-11T07:59:50.610Z,74.70
2019-01-11T08:00:50.591Z,73.50
2019-01-11T08:01:50.562Z,79.70
2019-01-11T08:02:50.540Z,70.90
2019-01-11T08:03:50.515Z,77.30
2019-01-11T08:04:50.496Z,76.80
2019-01-11T08:05:50.475Z,73.80
2019-01-11T08:06:50.449Z,77.00
2019-01-11T08:07:50.422Z,77.00
2019-01-11T08:08:50.402Z,77.90
2019-01-11T08:09:50.379Z,77.00
2019-01-11T08:10:50.357Z,77.60
2019-01-11T08:11:50.340Z,72.20
2019-01-11T08:12:50.313Z,80.80
2019-01-11T08:13:50.287Z,78.80
2019-01-11T08:14:50.267Z,87.70
2019-01-11T08:15:50.243Z,72.10
2019-01-11T08:16:50.218Z,78.90
2019-01-11T08:17:50.197Z,80.10
2019-01-11T08:18:50.171Z,75.40
2019-01-11T08:19:50.149Z,74.50
2019-01-11T08:20:56.033Z,82.70
2019-01-11T08:21:50.106Z,81.10
2019-01-11T08:22:50.079Z,80.70
2019-01-11T08:23:50.056Z,80.90
2019-01-11T08:24:50.036Z,75.30
2019-01-11T08:25:50.010Z,80.80
2019-01-11T08:26:49.989Z,79.00
2019-01-11T08:27:49.965Z,82.40
2019-01-11T08:28:49.943Z,83.10
2019-01-11T08:29:49.920Z,82.90
2019-01-11T08:30:49.905Z,86.40
2019-01-11T08:31:49.873Z,76.70
2019-01-11T08:32:49.849Z,85.50
2019-01-11T08:33:49.833Z,79.30
2019-01-11T08:34:49.800Z,84.80
2019-01-11T08:35:49.782Z,92.80
2019-01-11T08:36:49.760Z,95.20
2019-01-11T08:37:49.734Z,81.90
2019-01-11T08:38:49.710Z,93.40
2019-01-11T08:39:49.690Z,80.60
2019-01-11T08:40:49.667Z,88.90
2019-01-11T08:41:49.651Z,87.80
2019-01-11T08:42:49.620Z,84.10
2019-01-11T08:43:49.598Z,79.60
2019-01-11T08:44:49.576Z,84.50
2019-01-11T08:45:49.553Z,98.50
2019-01-11T08:46:49.539Z,82.10
2019-01-11T08:47:49.505Z,83.40
2019-01-11T08:48:49.483Z,97.50
2019-01-11T08:49:49.458Z,88.70
2019-01-11T08:50:49.436Z,86.40
2019-01-11T08:51:49.424Z,91.50
2019-01-11T08:52:49.395Z,88.50
2019-01-11T08:53:49.368Z,91.20
2019-01-11T08:54:49.344Z,98.40
2019-01-11T08:55:49.323Z,88.40
2019-01-11T08:56:49.302Z,91.30
2019-01-11T08:57:49.285Z,92.60
2019-01-11T08:58:50.647Z,91.50
2019-01-11T08:59:49.236Z,87.30
2019-01-11T09:00:49.213Z,100.10
2019-01-11T09:01:49.187Z,105.10
2019-01-11T09:02:49.163Z,85.90
2019-01-11T09:03:49.140Z,92.30
2019-01-11T09:04:49.117Z,91.80
2019-01-11T09:05:49.095Z,89.70
2019-01-11T09:06:49.073Z,95.30
2019-01-11T09:07:49.047Z,83.20
2019-01-11T09:08:49.025Z,91.40
2019-01-11T09:09:49.004Z,78.30
2019-01-11T09:10:48.984Z,82.40
2019-01-11T09:11:48.958Z,84.90
2019-01-11T09:12:48.940Z,79.10
2019-01-11T09:13:48.912Z,81.30
2019-01-11T09:14:48.899Z,87.70
2019-01-11T09:15:49.191Z,83.80
2019-01-11T09:16:48.845Z,89.70
2019-01-11T09:17:48.829Z,91.00
2019-01-11T09:18:48.799Z,84.90
2019-01-11T09:19:48.776Z,91.50
2019-01-11T09:20:48.754Z,83.70
2019-01-11T09:21:48.732Z,81.40
2019-01-11T09:22:48.706Z,79.50
2019-01-11T09:23:48.693Z,83.10
2019-01-11T09:24:48.663Z,80.50
2019-01-11T09:25:48.642Z,81.30
2019-01-11T09:26:48.616Z,87.90
2019-01-11T09:27:48.600Z,84.50
2019-01-11T09:28:48.578Z,92.10
2019-01-11T09:29:48.553Z,86.60
2019-01-11T09:30:48.528Z,86.30
2019-01-11T09:31:48.546Z,81.40
2019-01-11T09:32:48.491Z,84.30
2019-01-11T09:33:48.469Z,88.10
2019-01-11T09:34:48.441Z,83.50
2019-01-11T09:35:48.419Z,80.70
2019-01-11T09:36:48.391Z,89.90
2019-01-11T09:37:48.370Z,87.70
2019-01-11T09:38:48.358Z,84.70
2019-01-11T09:39:48.324Z,85.00
2019-01-11T09:40:48.303Z,85.10
2019-01-11T09:41:48.279Z,92.30
2019-01-11T09:42:48.277Z,89.10
2019-01-11T09:43:48.238Z,80.70
2019-01-11T09:44:48.216Z,76.50
2019-01-11T09:45:48.210Z,78.30
2019-01-11T09:46:48.174Z,76.10
2019-01-11T09:47:48.146Z,81.40
2019-01-11T09:48:48.153Z,84.70
2019-01-11T09:49:48.115Z,81.00
2019-01-11T09:50:48.082Z,82.00
2019-01-11T09:51:48.061Z,79.10
2019-01-11T09:52:48.039Z,77.20
2019-01-11T09:53:48.031Z,78.30
2019-01-11T09:54:48.002Z,81.40
2019-01-11T09:55:47.970Z,74.50
2019-01-11T09:56:47.950Z,79.60
2019-01-11T09:57:47.926Z,83.20
2019-01-11T09:58:47.905Z,83.80
2019-01-11T09:59:47.881Z,71.30
2019-01-11T10:00:47.872Z,75.50
2019-01-11T10:01:47.834Z,94.00
2019-01-11T10:02:47.810Z,73.80
2019-01-11T10:03:47.789Z,87.40
2019-01-11T10:04:47.773Z,78.20
2019-01-11T10:05:47.744Z,80.90
2019-01-11T10:06:47.726Z,79.50
2019-01-11T10:07:47.701Z,81.70
2019-01-11T10:08:47.677Z,74.60
2019-01-11T10:09:47.655Z,81.20
2019-01-11T10:10:47.635Z,72.70
2019-01-11T10:11:47.613Z,81.00
2019-01-11T10:12:47.604Z,83.80
2019-01-11T10:13:47.573Z,87.60
2019-01-11T10:14:47.546Z,74.10
2019-01-11T10:15:47.525Z,79.30
2019-01-11T10:16:47.505Z,69.90
2019-01-11T10:17:47.479Z,76.00
2019-01-11T10:18:47.510Z,86.30
2019-01-11T10:19:47.437Z,72.60
2019-01-11T10:20:47.421Z,70.30
2019-01-11T10:21:47.390Z,72.10
2019-01-11T10:22:47.374Z,64.00
2019-01-11T10:23:47.354Z,71.50
2019-01-11T10:24:47.324Z,71.20
2019-01-11T10:25:47.303Z,63.40
2019-01-11T10:26:47.279Z,68.20
2019-01-11T10:27:47.276Z,62.00
2019-01-11T10:28:47.241Z,61.80
2019-01-11T10:29:47.224Z,62.60
2019-01-11T10:30:47.194Z,61.50
2019-01-11T10:31:47.172Z,57.30
2019-01-11T10:32:47.153Z,56.30
2019-01-11T10:33:47.130Z,53.80
2019-01-11T10:34:47.115Z,50.90
2019-01-11T10:35:47.086Z,61.50
2019-01-11T10:36:47.066Z,54.90
2019-01-11T10:37:47.057Z,56.90
2019-01-11T10:38:47.018Z,50.50
2019-01-11T10:39:46.995Z,54.60
2019-01-11T10:40:46.978Z,52.90
2019-01-11T10:41:46.963Z,51.70
2019-01-11T10:42:46.928Z,57.70
2019-01-11T10:43:46.908Z,60.00
2019-01-11T10:44:46.886Z,53.10
2019-01-11T10:45:46.873Z,56.50
2019-01-11T10:46:49.112Z,55.70
2019-01-11T10:47:46.820Z,58.80
2019-01-11T10:48:46.800Z,53.50
2019-01-11T10:49:46.778Z,57.20
2019-01-11T10:50:46.760Z,55.20
2019-01-11T10:51:46.734Z,57.40
2019-01-11T10:52:46.711Z,54.50
2019-01-11T10:53:46.695Z,58.60
2019-01-11T10:54:46.666Z,58.60
2019-01-11T10:55:46.659Z,56.50
2019-01-11T10:56:46.630Z,56.50
2019-01-11T10:57:46.606Z,59.10
2019-01-11T10:58:46.583Z,63.30
2019-01-11T10:59:46.560Z,53.70
2019-01-11T11:00:46.548Z,60.80
2019-01-11T11:01:46.518Z,58.30
2019-01-11T11:02:46.493Z,53.50
2019-01-11T11:03:46.471Z,50.70
2019-01-11T11:04:46.453Z,52.70
2019-01-11T11:05:46.428Z,57.10
2019-01-11T11:06:46.406Z,52.80
2019-01-11T11:07:46.388Z,50.30
2019-01-11T11:08:46.366Z,50.50
2019-01-11T11:09:46.343Z,51.20
2019-01-11T11:10:46.320Z,52.70
2019-01-11T11:11:46.299Z,55.70
2019-01-11T11:12:46.285Z,51.80
2019-01-11T11:13:46.259Z,53.80
2019-01-11T11:14:46.235Z,51.60
2019-01-11T11:15:46.213Z,51.40
2019-01-11T11:16:46.192Z,50.50
2019-01-11T11:17:46.171Z,51.00
2019-01-11T11:18:46.150Z,47.70
2019-01-11T11:19:46.125Z,48.00
2019-01-11T11:20:46.103Z,48.20
2019-01-11T11:21:46.082Z,46.70
2019-01-11T11:22:46.062Z,46.70
2019-01-11T11:23:46.046Z,46.70
2019-01-11T11:24:46.020Z,46.80
2019-01-11T11:25:45.997Z,46.30
2019-01-11T11:26:45.977Z,43.00
2019-01-11T11:27:45.953Z,43.80
2019-01-11T11:28:45.935Z,38.30
2019-01-11T11:29:45.912Z,43.00
2019-01-11T11:30:45.891Z,42.50
2019-01-11T11:31:45.876Z,41.50
2019-01-11T11:32:45.847Z,42.60
2019-01-11T11:33:45.836Z,40.50
2019-01-11T11:34:45.818Z,40.90
2019-01-11T11:35:45.782Z,39.40
2019-01-11T11:36:45.767Z,36.90
2019-01-11T11:37:45.743Z,40.70
2019-01-11T11:38:45.720Z,40.00
2019-01-11T11:39:45.704Z,38.50
2019-01-11T11:40:45.678Z,42.10
2019-01-11T11:41:45.657Z,42.50
2019-01-11T11:42:45.640Z,44.00
2019-01-11T11:43:45.619Z,39.50
2019-01-11T11:44:45.594Z,38.40
2019-01-11T11:45:45.571Z,39.90
2019-01-11T11:46:45.549Z,39.10
2019-01-11T11:47:45.530Z,42.10
2019-01-11T11:48:45.510Z,42.50
2019-01-11T11:49:45.487Z,42.20
2019-01-11T11:50:45.463Z,35.10
2019-01-11T11:51:45.445Z,37.10
2019-01-11T11:52:45.421Z,40.50
2019-01-11T11:53:45.397Z,39.60
2019-01-11T11:54:45.383Z,39.90
2019-01-11T11:55:45.356Z,40.40
2019-01-11T11:56:45.338Z,37.00
2019-01-11T11:57:45.313Z,37.00
2019-01-11T11:58:45.340Z,39.40
2019-01-11T11:59:45.272Z,42.50
2019-01-11T12:00:45.250Z,39.70
2019-01-11T12:01:46.700Z,41.20
2019-01-11T12:02:45.209Z,35.80
2019-01-11T12:03:45.185Z,36.00
2019-01-11T12:04:45.169Z,36.90
2019-01-11T12:05:45.141Z,37.30
2019-01-11T12:06:45.120Z,37.80
2019-01-11T12:07:45.101Z,36.30
2019-01-11T12:08:45.079Z,37.70
2019-01-11T12:09:45.058Z,39.40
2019-01-11T12:10:45.034Z,38.70
2019-01-11T12:11:45.018Z,37.00
2019-01-11T12:12:44.994Z,40.30
2019-01-11T12:13:44.974Z,36.80
2019-01-11T12:14:44.950Z,37.50
2019-01-11T12:15:44.927Z,37.40
2019-01-11T12:16:44.909Z,43.20
2019-01-11T12:17:44.888Z,40.90
2019-01-11T12:18:44.870Z,41.20
2019-01-11T12:19:44.845Z,41.90
2019-01-11T12:20:44.824Z,39.20
2019-01-11T12:21:47.851Z,39.20
2019-01-11T12:22:44.781Z,38.40
2019-01-11T12:23:44.760Z,39.10
2019-01-11T12:24:44.739Z,39.20
2019-01-11T12:25:44.713Z,35.90
2019-01-11T12:26:44.696Z,38.70
2019-01-11T12:27:44.681Z,42.50
2019-01-11T12:28:44.663Z,40.90
2019-01-11T12:29:44.643Z,42.50
2019-01-11T12:30:44.620Z,43.80
2019-01-11T12:31:44.589Z,41.00
2019-01-11T12:32:44.570Z,45.90
2019-01-11T12:33:44.552Z,37.50
2019-01-11T12:34:44.526Z,37.20
2019-01-11T12:35:44.505Z,37.80
2019-01-11T12:36:44.491Z,36.80
2019-01-11T12:37:44.472Z,40.60
2019-01-11T12:38:44.444Z,34.60
2019-01-11T12:39:44.429Z,37.00
2019-01-11T12:40:44.401Z,36.00
2019-01-11T12:41:44.384Z,41.50
2019-01-11T12:42:44.365Z,41.30
2019-01-11T12:43:44.336Z,41.30
2019-01-11T12:44:44.318Z,32.90
2019-01-11T12:45:44.302Z,39.70
2019-01-11T12:46:44.273Z,33.20
2019-01-11T12:47:44.253Z,34.80
2019-01-11T12:48:44.231Z,33.30
2019-01-11T12:49:44.208Z,33.30
2019-01-11T12:50:44.186Z,30.50
2019-01-11T12:51:44.194Z,32.40
2019-01-11T12:52:44.152Z,32.30